sensor_id;sensor_type;location;lat;lon;timestamp;P1;durP1;ratioP1;P2;durP2;ratioP2
15167;SDS011;7684;52.150;11.656;2022-10-16T04:17:44;2.37;;;1.83;;
15167;SDS011;7684;52.150;11.656;2022-10-16T04:20:11;2.43;;;2.10;;
15167;SDS011;7684;52.150;11.656;2022-10-16T04:22:37;2.70;;;2.20;;
15167;SDS011;7684;52.150;11.656;2022-10-16T04:25:04;2.50;;;2.03;;
15167;SDS011;7684;52.150;11.656;2022-10-16T04:27:31;2.93;;;1.67;;
15167;SDS011;7684;52.150;11.656;2022-10-16T04:29:57;2.83;;;2.03;;
15167;SDS011;7684;52.150;11.656;2022-10-16T04:32:23;2.20;;;1.97;;
15167;SDS011;7684;52.150;11.656;2022-10-16T04:34:51;2.97;;;2.07;;
15167;SDS011;7684;52.150;11.656;2022-10-16T04:37:18;2.97;;;1.87;;
15167;SDS011;7684;52.150;11.656;2022-10-16T04:39:44;3.10;;;1.90;;
15167;SDS011;7684;52.150;11.656;2022-10-16T04:42:11;2.20;;;1.93;;
15167;SDS011;7684;52.150;11.656;2022-10-16T04:44:37;2.40;;;1.70;;
15167;SDS011;7684;52.150;11.656;2022-10-16T04:47:03;2.57;;;2.10;;
15167;SDS011;7684;52.150;11.656;2022-10-16T04:49:30;4.27;;;2.10;;
15167;SDS011;7684;52.150;11.656;2022-10-16T04:51:58;2.57;;;2.20;;
15167;SDS011;7684;52.150;11.656;2022-10-16T04:54:24;1.70;;;1.60;;
15167;SDS011;7684;52.150;11.656;2022-10-16T04:56:51;2.17;;;1.97;;
15167;SDS011;7684;52.150;11.656;2022-10-16T04:59:17;3.10;;;2.13;;
15167;SDS011;7684;52.150;11.656;2022-10-16T05:01:44;2.10;;;1.90;;
15167;SDS011;7684;52.150;11.656;2022-10-16T05:04:11;3.37;;;2.10;;
15167;SDS011;7684;52.150;11.656;2022-10-16T05:06:37;1.93;;;1.83;;
15167;SDS011;7684;52.150;11.656;2022-10-16T05:09:05;2.77;;;1.93;;
15167;SDS011;7684;52.150;11.656;2022-10-16T05:11:32;2.63;;;2.20;;
15167;SDS011;7684;52.150;11.656;2022-10-16T05:13:58;3.87;;;2.00;;
15167;SDS011;7684;52.150;11.656;2022-10-16T05:16:25;2.23;;;2.03;;
15167;SDS011;7684;52.150;11.656;2022-10-16T05:18:51;1.80;;;1.70;;
15167;SDS011;7684;52.150;11.656;2022-10-16T05:21:18;2.10;;;1.90;;
15167;SDS011;7684;52.150;11.656;2022-10-16T05:23:44;2.20;;;2.00;;
15167;SDS011;7684;52.150;11.656;2022-10-16T05:26:12;2.10;;;1.83;;
15167;SDS011;7684;52.150;11.656;2022-10-16T05:28:38;2.20;;;2.00;;
15167;SDS011;7684;52.150;11.656;2022-10-16T05:31:05;2.33;;;2.13;;
15167;SDS011;7684;52.150;11.656;2022-10-16T05:33:31;2.80;;;2.23;;
15167;SDS011;7684;52.150;11.656;2022-10-16T05:36:00;2.40;;;2.20;;
15167;SDS011;7684;52.150;11.656;2022-10-16T05:38:26;2.53;;;2.30;;
15167;SDS011;7684;52.150;11.656;2022-10-16T05:40:53;2.10;;;2.00;;
15167;SDS011;7684;52.150;11.656;2022-10-16T05:43:21;3.40;;;2.03;;
15167;SDS011;7684;52.150;11.656;2022-10-16T05:45:53;2.47;;;2.10;;
15167;SDS011;7684;52.150;11.656;2022-10-16T05:48:19;1.83;;;1.70;;
15167;SDS011;7684;52.150;11.656;2022-10-16T05:50:46;2.00;;;1.80;;
15167;SDS011;7684;52.150;11.656;2022-10-16T05:53:12;2.20;;;2.00;;
15167;SDS011;7684;52.150;11.656;2022-10-16T05:55:38;5.33;;;2.53;;
15167;SDS011;7684;52.150;11.656;2022-10-16T05:58:05;2.40;;;2.20;;
15167;SDS011;7684;52.150;11.656;2022-10-16T06:00:32;3.67;;;2.23;;
15167;SDS011;7684;52.150;11.656;2022-10-16T06:02:59;2.40;;;2.10;;
15167;SDS011;7684;52.150;11.656;2022-10-16T06:05:26;2.40;;;2.20;;
15167;SDS011;7684;52.150;11.656;2022-10-16T06:07:52;2.30;;;1.90;;
15167;SDS011;7684;52.150;11.656;2022-10-16T06:10:18;2.63;;;2.40;;
15167;SDS011;7684;52.150;11.656;2022-10-16T06:12:45;3.73;;;2.30;;
15167;SDS011;7684;52.150;11.656;2022-10-16T06:15:11;2.77;;;2.13;;
15167;SDS011;7684;52.150;11.656;2022-10-16T06:17:39;3.60;;;2.23;;
15167;SDS011;7684;52.150;11.656;2022-10-16T06:20:05;2.67;;;2.03;;
15167;SDS011;7684;52.150;11.656;2022-10-16T06:22:32;2.33;;;2.10;;
15167;SDS011;7684;52.150;11.656;2022-10-16T06:24:58;2.20;;;2.00;;
15167;SDS011;7684;52.150;11.656;2022-10-16T06:27:25;1.97;;;1.83;;
15167;SDS011;7684;52.150;11.656;2022-10-16T06:29:51;2.53;;;2.20;;
15167;SDS011;7684;52.150;11.656;2022-10-16T06:32:17;2.00;;;1.90;;
15167;SDS011;7684;52.150;11.656;2022-10-16T06:34:45;3.90;;;2.30;;
15167;SDS011;7684;52.150;11.656;2022-10-16T06:37:11;2.40;;;2.20;;
15167;SDS011;7684;52.150;11.656;2022-10-16T06:39:38;3.57;;;2.20;;
15167;SDS011;7684;52.150;11.656;2022-10-16T06:42:04;2.60;;;2.40;;
15167;SDS011;7684;52.150;11.656;2022-10-16T06:44:30;2.63;;;2.43;;
15167;SDS011;7684;52.150;11.656;2022-10-16T06:46:57;4.37;;;2.30;;
15167;SDS011;7684;52.150;11.656;2022-10-16T06:49:23;2.80;;;2.60;;
15167;SDS011;7684;52.150;11.656;2022-10-16T06:51:51;4.13;;;2.40;;
15167;SDS011;7684;52.150;11.656;2022-10-16T06:54:17;2.70;;;2.50;;
15167;SDS011;7684;52.150;11.656;2022-10-16T06:56:44;2.23;;;2.03;;
15167;SDS011;7684;52.150;11.656;2022-10-16T06:59:10;2.60;;;2.30;;
15167;SDS011;7684;52.150;11.656;2022-10-16T07:01:37;2.30;;;2.10;;
15167;SDS011;7684;52.150;11.656;2022-10-16T07:04:03;2.40;;;2.20;;
15167;SDS011;7684;52.150;11.656;2022-10-16T07:06:30;3.27;;;2.23;;
15167;SDS011;7684;52.150;11.656;2022-10-16T07:09:00;3.53;;;2.47;;
15167;SDS011;7684;52.150;11.656;2022-10-16T07:11:27;2.57;;;2.10;;
15167;SDS011;7684;52.150;11.656;2022-10-16T07:13:53;3.47;;;2.00;;
15167;SDS011;7684;52.150;11.656;2022-10-16T07:16:20;2.87;;;2.10;;
15167;SDS011;7684;52.150;11.656;2022-10-16T07:18:46;4.87;;;2.10;;
15167;SDS011;7684;52.150;11.656;2022-10-16T07:21:14;2.93;;;2.13;;
15167;SDS011;7684;52.150;11.656;2022-10-16T07:23:41;3.07;;;2.10;;
15167;SDS011;7684;52.150;11.656;2022-10-16T07:26:09;2.77;;;1.97;;
15167;SDS011;7684;52.150;11.656;2022-10-16T07:28:36;2.47;;;2.27;;
15167;SDS011;7684;52.150;11.656;2022-10-16T07:31:03;5.47;;;2.07;;
15167;SDS011;7684;52.150;11.656;2022-10-16T07:33:29;2.77;;;1.93;;
15167;SDS011;7684;52.150;11.656;2022-10-16T07:35:56;4.13;;;2.20;;
15167;SDS011;7684;52.150;11.656;2022-10-16T07:38:23;2.10;;;1.80;;
15167;SDS011;7684;52.150;11.656;2022-10-16T07:40:55;2.37;;;2.17;;
15167;SDS011;7684;52.150;11.656;2022-10-16T07:43:23;2.70;;;1.60;;
15167;SDS011;7684;52.150;11.656;2022-10-16T07:45:49;3.17;;;1.90;;
15167;SDS011;7684;52.150;11.656;2022-10-16T07:48:16;2.13;;;1.90;;
15167;SDS011;7684;52.150;11.656;2022-10-16T07:50:43;2.10;;;2.00;;
15167;SDS011;7684;52.150;11.656;2022-10-16T07:53:10;1.63;;;1.53;;
15167;SDS011;7684;52.150;11.656;2022-10-16T07:55:36;1.50;;;1.40;;
15167;SDS011;7684;52.150;11.656;2022-10-16T07:58:02;2.00;;;1.80;;
15167;SDS011;7684;52.150;11.656;2022-10-16T08:00:30;2.63;;;2.00;;
15167;SDS011;7684;52.150;11.656;2022-10-16T08:02:57;2.30;;;1.60;;
15167;SDS011;7684;52.150;11.656;2022-10-16T08:05:25;2.77;;;1.80;;
15167;SDS011;7684;52.150;11.656;2022-10-16T08:07:51;1.97;;;1.73;;
15167;SDS011;7684;52.150;11.656;2022-10-16T08:10:18;2.10;;;1.90;;
15167;SDS011;7684;52.150;11.656;2022-10-16T08:12:45;2.97;;;1.80;;
15167;SDS011;7684;52.150;11.656;2022-10-16T08:15:11;3.77;;;1.80;;
15167;SDS011;7684;52.150;11.656;2022-10-16T08:17:39;2.93;;;2.13;;
15167;SDS011;7684;52.150;11.656;2022-10-16T08:20:06;2.07;;;1.80;;
15167;SDS011;7684;52.150;11.656;2022-10-16T08:22:32;2.03;;;1.73;;
15167;SDS011;7684;52.150;11.656;2022-10-16T08:24:58;1.70;;;1.60;;
15167;SDS011;7684;52.150;11.656;2022-10-16T08:27:30;2.17;;;1.43;;
15167;SDS011;7684;52.150;11.656;2022-10-16T08:29:56;1.87;;;1.33;;
15167;SDS011;7684;52.150;11.656;2022-10-16T08:32:23;2.03;;;1.10;;
15167;SDS011;7684;52.150;11.656;2022-10-16T08:34:50;2.53;;;0.95;;
15167;SDS011;7684;52.150;11.656;2022-10-16T08:37:17;1.23;;;1.13;;
15167;SDS011;7684;52.150;11.656;2022-10-16T08:39:43;3.03;;;1.30;;
15167;SDS011;7684;52.150;11.656;2022-10-16T08:42:11;2.40;;;1.00;;
15167;SDS011;7684;52.150;11.656;2022-10-16T08:47:30;2.08;;;0.90;;
15167;SDS011;7684;52.150;11.656;2022-10-16T08:50:10;1.08;;;0.98;;
15167;SDS011;7684;52.150;11.656;2022-10-16T08:52:38;1.92;;;0.90;;
15167;SDS011;7684;52.150;11.656;2022-10-16T08:55:05;1.55;;;0.95;;
15167;SDS011;7684;52.150;11.656;2022-10-16T08:57:32;1.25;;;0.75;;
15167;SDS011;7684;52.150;11.656;2022-10-16T09:00:00;0.98;;;0.65;;
15167;SDS011;7684;52.150;11.656;2022-10-16T09:02:28;2.25;;;0.90;;
15167;SDS011;7684;52.150;11.656;2022-10-16T09:04:58;1.90;;;0.77;;
15167;SDS011;7684;52.150;11.656;2022-10-16T09:07:31;2.05;;;0.60;;
15167;SDS011;7684;52.150;11.656;2022-10-16T09:10:02;1.10;;;0.77;;
15167;SDS011;7684;52.150;11.656;2022-10-16T09:12:31;2.60;;;0.70;;
15167;SDS011;7684;52.150;11.656;2022-10-16T09:15:01;0.93;;;0.52;;
15167;SDS011;7684;52.150;11.656;2022-10-16T09:17:39;1.08;;;0.55;;
15167;SDS011;7684;52.150;11.656;2022-10-16T09:20:20;2.88;;;0.80;;
15167;SDS011;7684;52.150;11.656;2022-10-16T09:22:52;1.08;;;0.70;;
15167;SDS011;7684;52.150;11.656;2022-10-16T09:25:20;1.70;;;0.70;;
15167;SDS011;7684;52.150;11.656;2022-10-16T09:27:47;1.08;;;0.70;;
15167;SDS011;7684;52.150;11.656;2022-10-16T09:30:15;1.40;;;0.60;;
15167;SDS011;7684;52.150;11.656;2022-10-16T09:32:42;0.70;;;0.70;;
15167;SDS011;7684;52.150;11.656;2022-10-16T09:35:11;0.90;;;0.60;;
15167;SDS011;7684;52.150;11.656;2022-10-16T09:37:39;1.38;;;0.50;;
15167;SDS011;7684;52.150;11.656;2022-10-16T09:40:11;1.00;;;0.60;;
15167;SDS011;7684;52.150;11.656;2022-10-16T09:42:38;1.33;;;0.60;;
15167;SDS011;7684;52.150;11.656;2022-10-16T09:45:05;2.22;;;0.63;;
15167;SDS011;7684;52.150;11.656;2022-10-16T09:47:32;1.17;;;0.50;;
15167;SDS011;7684;52.150;11.656;2022-10-16T09:50:04;0.52;;;0.50;;
15167;SDS011;7684;52.150;11.656;2022-10-16T09:52:31;1.30;;;0.40;;
15167;SDS011;7684;52.150;11.656;2022-10-16T09:54:59;1.05;;;0.68;;
15167;SDS011;7684;52.150;11.656;2022-10-16T09:57:27;0.93;;;0.60;;
15167;SDS011;7684;52.150;11.656;2022-10-16T09:59:55;2.13;;;0.70;;
15167;SDS011;7684;52.150;11.656;2022-10-16T10:02:25;1.40;;;0.60;;
15167;SDS011;7684;52.150;11.656;2022-10-16T10:04:54;2.53;;;0.70;;
15167;SDS011;7684;52.150;11.656;2022-10-16T10:07:23;1.08;;;0.50;;
15167;SDS011;7684;52.150;11.656;2022-10-16T10:09:50;0.77;;;0.60;;
15167;SDS011;7684;52.150;11.656;2022-10-16T10:12:17;1.73;;;0.50;;
15167;SDS011;7684;52.150;11.656;2022-10-16T10:14:46;1.00;;;0.45;;
15167;SDS011;7684;52.150;11.656;2022-10-16T10:17:14;0.40;;;0.40;;
15167;SDS011;7684;52.150;11.656;2022-10-16T10:19:42;1.20;;;0.40;;
15167;SDS011;7684;52.150;11.656;2022-10-16T10:22:17;0.40;;;0.40;;
15167;SDS011;7684;52.150;11.656;2022-10-16T10:24:45;0.75;;;0.47;;
15167;SDS011;7684;52.150;11.656;2022-10-16T10:27:20;1.00;;;0.50;;
15167;SDS011;7684;52.150;11.656;2022-10-16T10:29:52;1.98;;;0.70;;
15167;SDS011;7684;52.150;11.656;2022-10-16T10:32:24;1.30;;;0.60;;
15167;SDS011;7684;52.150;11.656;2022-10-16T10:34:59;1.27;;;0.40;;
15167;SDS011;7684;52.150;11.656;2022-10-16T10:37:32;1.27;;;0.50;;
15167;SDS011;7684;52.150;11.656;2022-10-16T10:40:03;1.35;;;0.70;;
15167;SDS011;7684;52.150;11.656;2022-10-16T10:42:32;1.20;;;0.30;;
15167;SDS011;7684;52.150;11.656;2022-10-16T10:45:11;0.93;;;0.50;;
15167;SDS011;7684;52.150;11.656;2022-10-16T10:47:40;0.40;;;0.38;;
15167;SDS011;7684;52.150;11.656;2022-10-16T10:50:10;1.65;;;0.50;;
15167;SDS011;7684;52.150;11.656;2022-10-16T10:52:44;0.50;;;0.30;;
15167;SDS011;7684;52.150;11.656;2022-10-16T10:55:16;0.90;;;0.52;;
15167;SDS011;7684;52.150;11.656;2022-10-16T10:57:47;1.35;;;0.50;;
15167;SDS011;7684;52.150;11.656;2022-10-16T11:00:21;1.42;;;0.57;;
15167;SDS011;7684;52.150;11.656;2022-10-16T11:02:55;1.38;;;0.50;;
15167;SDS011;7684;52.150;11.656;2022-10-16T11:05:34;0.95;;;0.50;;
15167;SDS011;7684;52.150;11.656;2022-10-16T11:08:02;0.52;;;0.35;;
15167;SDS011;7684;52.150;11.656;2022-10-16T11:10:34;1.85;;;0.50;;
15167;SDS011;7684;52.150;11.656;2022-10-16T11:13:06;1.20;;;0.20;;
15167;SDS011;7684;52.150;11.656;2022-10-16T11:15:38;0.93;;;0.30;;
15167;SDS011;7684;52.150;11.656;2022-10-16T11:18:06;1.75;;;0.30;;
15167;SDS011;7684;52.150;11.656;2022-10-16T11:20:33;1.45;;;0.30;;
15167;SDS011;7684;52.150;11.656;2022-10-16T11:23:01;0.82;;;0.28;;
15167;SDS011;7684;52.150;11.656;2022-10-16T11:25:31;0.50;;;0.40;;
15167;SDS011;7684;52.150;11.656;2022-10-16T11:28:00;1.08;;;0.50;;
15167;SDS011;7684;52.150;11.656;2022-10-16T11:30:28;0.57;;;0.45;;
15167;SDS011;7684;52.150;11.656;2022-10-16T11:33:02;0.65;;;0.30;;
15167;SDS011;7684;52.150;11.656;2022-10-16T11:35:33;0.52;;;0.40;;
15167;SDS011;7684;52.150;11.656;2022-10-16T11:38:03;0.40;;;0.40;;
15167;SDS011;7684;52.150;11.656;2022-10-16T11:40:36;0.32;;;0.30;;
15167;SDS011;7684;52.150;11.656;2022-10-16T11:43:07;1.08;;;0.38;;
15167;SDS011;7684;52.150;11.656;2022-10-16T11:45:38;1.10;;;0.32;;
15167;SDS011;7684;52.150;11.656;2022-10-16T11:48:10;1.05;;;0.40;;
15167;SDS011;7684;52.150;11.656;2022-10-16T11:50:39;1.15;;;0.50;;
15167;SDS011;7684;52.150;11.656;2022-10-16T11:53:10;1.42;;;0.45;;
15167;SDS011;7684;52.150;11.656;2022-10-16T11:55:38;1.15;;;0.38;;
15167;SDS011;7684;52.150;11.656;2022-10-16T11:58:06;0.40;;;0.30;;
15167;SDS011;7684;52.150;11.656;2022-10-16T12:00:35;2.10;;;0.40;;
15167;SDS011;7684;52.150;11.656;2022-10-16T12:03:05;0.50;;;0.30;;
15167;SDS011;7684;52.150;11.656;2022-10-16T12:05:41;1.02;;;0.40;;
15167;SDS011;7684;52.150;11.656;2022-10-16T12:08:13;1.25;;;0.30;;
15167;SDS011;7684;52.150;11.656;2022-10-16T12:10:41;0.73;;;0.28;;
15167;SDS011;7684;52.150;11.656;2022-10-16T12:15:49;0.50;;;0.30;;
15167;SDS011;7684;52.150;11.656;2022-10-16T12:18:20;1.23;;;0.40;;
15167;SDS011;7684;52.150;11.656;2022-10-16T12:20:55;0.50;;;0.30;;
15167;SDS011;7684;52.150;11.656;2022-10-16T12:23:24;1.48;;;0.30;;
15167;SDS011;7684;52.150;11.656;2022-10-16T12:25:53;0.30;;;0.20;;
15167;SDS011;7684;52.150;11.656;2022-10-16T12:28:21;0.85;;;0.30;;
15167;SDS011;7684;52.150;11.656;2022-10-16T12:30:52;1.50;;;0.28;;
15167;SDS011;7684;52.150;11.656;2022-10-16T12:33:19;0.60;;;0.22;;
15167;SDS011;7684;52.150;11.656;2022-10-16T12:35:47;0.50;;;0.30;;
15167;SDS011;7684;52.150;11.656;2022-10-16T12:38:17;1.20;;;0.20;;
15167;SDS011;7684;52.150;11.656;2022-10-16T12:40:44;0.60;;;0.30;;
15167;SDS011;7684;52.150;11.656;2022-10-16T12:45:59;1.45;;;0.40;;
15167;SDS011;7684;52.150;11.656;2022-10-16T12:48:25;1.25;;;0.40;;
15167;SDS011;7684;52.150;11.656;2022-10-16T12:50:53;1.30;;;0.40;;
15167;SDS011;7684;52.150;11.656;2022-10-16T12:53:21;2.47;;;0.40;;
15167;SDS011;7684;52.150;11.656;2022-10-16T12:55:52;0.28;;;0.20;;
15167;SDS011;7684;52.150;11.656;2022-10-16T12:58:28;1.27;;;0.40;;
15167;SDS011;7684;52.150;11.656;2022-10-16T13:01:01;0.50;;;0.32;;
15167;SDS011;7684;52.150;11.656;2022-10-16T13:03:34;1.10;;;0.47;;
15167;SDS011;7684;52.150;11.656;2022-10-16T13:06:08;4.18;;;0.30;;
15167;SDS011;7684;52.150;11.656;2022-10-16T13:08:49;0.52;;;0.20;;
15167;SDS011;7684;52.150;11.656;2022-10-16T13:11:23;1.67;;;0.30;;
15167;SDS011;7684;52.150;11.656;2022-10-16T13:16:41;0.30;;;0.17;;
15167;SDS011;7684;52.150;11.656;2022-10-16T13:19:13;1.15;;;0.20;;
15167;SDS011;7684;52.150;11.656;2022-10-16T13:21:44;0.60;;;0.10;;
15167;SDS011;7684;52.150;11.656;2022-10-16T13:24:18;1.60;;;0.30;;
15167;SDS011;7684;52.150;11.656;2022-10-16T13:26:48;0.20;;;0.20;;
15167;SDS011;7684;52.150;11.656;2022-10-16T13:29:17;0.40;;;0.30;;
15167;SDS011;7684;52.150;11.656;2022-10-16T13:31:44;0.73;;;0.20;;
15167;SDS011;7684;52.150;11.656;2022-10-16T13:34:12;1.00;;;0.40;;
15167;SDS011;7684;52.150;11.656;2022-10-16T13:36:43;1.25;;;0.30;;
15167;SDS011;7684;52.150;11.656;2022-10-16T13:39:11;1.02;;;0.20;;
15167;SDS011;7684;52.150;11.656;2022-10-16T13:41:39;0.43;;;0.30;;
15167;SDS011;7684;52.150;11.656;2022-10-16T13:44:08;0.43;;;0.32;;
15167;SDS011;7684;52.150;11.656;2022-10-16T13:46:38;0.70;;;0.20;;
15167;SDS011;7684;52.150;11.656;2022-10-16T13:49:05;1.65;;;0.30;;
15167;SDS011;7684;52.150;11.656;2022-10-16T13:51:32;2.25;;;0.20;;
15167;SDS011;7684;52.150;11.656;2022-10-16T13:53:58;0.38;;;0.20;;
15167;SDS011;7684;52.150;11.656;2022-10-16T13:56:27;0.40;;;0.15;;
15167;SDS011;7684;52.150;11.656;2022-10-16T13:59:01;1.23;;;0.30;;
15167;SDS011;7684;52.150;11.656;2022-10-16T14:01:29;0.90;;;0.10;;
15167;SDS011;7684;52.150;11.656;2022-10-16T14:04:00;1.30;;;0.20;;
15167;SDS011;7684;52.150;11.656;2022-10-16T14:06:27;0.68;;;0.30;;
15167;SDS011;7684;52.150;11.656;2022-10-16T14:08:55;1.15;;;0.20;;
15167;SDS011;7684;52.150;11.656;2022-10-16T14:11:23;0.30;;;0.17;;
15167;SDS011;7684;52.150;11.656;2022-10-16T14:13:50;1.33;;;0.20;;
15167;SDS011;7684;52.150;11.656;2022-10-16T14:16:18;0.20;;;0.20;;
15167;SDS011;7684;52.150;11.656;2022-10-16T14:18:46;0.50;;;0.20;;
15167;SDS011;7684;52.150;11.656;2022-10-16T14:21:17;1.52;;;0.20;;
15167;SDS011;7684;52.150;11.656;2022-10-16T14:23:44;1.05;;;0.55;;
15167;SDS011;7684;52.150;11.656;2022-10-16T14:26:15;2.33;;;0.65;;
15167;SDS011;7684;52.150;11.656;2022-10-16T14:28:43;2.40;;;1.35;;
15167;SDS011;7684;52.150;11.656;2022-10-16T14:31:30;2.88;;;2.40;;
15167;SDS011;7684;52.150;11.656;2022-10-16T14:33:57;2.65;;;1.13;;
15167;SDS011;7684;52.150;11.656;2022-10-16T14:36:24;2.05;;;1.55;;
15167;SDS011;7684;52.150;11.656;2022-10-16T14:38:54;1.50;;;0.60;;
15167;SDS011;7684;52.150;11.656;2022-10-16T14:41:22;1.95;;;0.50;;
15167;SDS011;7684;52.150;11.656;2022-10-16T14:43:50;1.92;;;0.35;;
15167;SDS011;7684;52.150;11.656;2022-10-16T14:46:18;2.67;;;0.28;;
15167;SDS011;7684;52.150;11.656;2022-10-16T14:48:46;1.30;;;0.28;;
15167;SDS011;7684;52.150;11.656;2022-10-16T14:51:14;0.90;;;0.40;;
15167;SDS011;7684;52.150;11.656;2022-10-16T14:53:41;1.05;;;0.20;;
15167;SDS011;7684;52.150;11.656;2022-10-16T14:56:07;1.92;;;0.30;;
15167;SDS011;7684;52.150;11.656;2022-10-16T14:58:34;1.17;;;0.38;;
15167;SDS011;7684;52.150;11.656;2022-10-16T15:01:01;0.85;;;0.47;;
15167;SDS011;7684;52.150;11.656;2022-10-16T15:03:27;2.42;;;0.40;;
15167;SDS011;7684;52.150;11.656;2022-10-16T15:05:55;1.50;;;0.30;;
15167;SDS011;7684;52.150;11.656;2022-10-16T15:08:21;0.80;;;0.30;;
15167;SDS011;7684;52.150;11.656;2022-10-16T15:10:48;0.85;;;0.30;;
15167;SDS011;7684;52.150;11.656;2022-10-16T15:13:14;0.95;;;0.40;;
15167;SDS011;7684;52.150;11.656;2022-10-16T15:15:42;1.33;;;0.30;;
15167;SDS011;7684;52.150;11.656;2022-10-16T15:18:08;1.85;;;0.30;;
15167;SDS011;7684;52.150;11.656;2022-10-16T15:20:35;4.50;;;0.30;;
15167;SDS011;7684;52.150;11.656;2022-10-16T15:23:05;0.70;;;0.38;;
15167;SDS011;7684;52.150;11.656;2022-10-16T15:25:34;1.17;;;0.40;;
15167;SDS011;7684;52.150;11.656;2022-10-16T15:28:01;1.50;;;0.40;;
15167;SDS011;7684;52.150;11.656;2022-10-16T15:30:28;2.92;;;0.50;;
15167;SDS011;7684;52.150;11.656;2022-10-16T15:32:54;3.03;;;0.38;;
15167;SDS011;7684;52.150;11.656;2022-10-16T15:35:21;8.90;;;1.10;;
15167;SDS011;7684;52.150;11.656;2022-10-16T15:37:48;5.32;;;0.63;;
15167;SDS011;7684;52.150;11.656;2022-10-16T15:40:16;0.98;;;0.47;;
15167;SDS011;7684;52.150;11.656;2022-10-16T15:42:42;0.90;;;0.43;;
15167;SDS011;7684;52.150;11.656;2022-10-16T15:45:09;0.98;;;0.50;;
15167;SDS011;7684;52.150;11.656;2022-10-16T15:47:35;1.48;;;0.60;;
15167;SDS011;7684;52.150;11.656;2022-10-16T15:50:02;1.52;;;0.63;;
15167;SDS011;7684;52.150;11.656;2022-10-16T15:52:28;4.65;;;0.88;;
15167;SDS011;7684;52.150;11.656;2022-10-16T15:54:56;1.00;;;0.40;;
15167;SDS011;7684;52.150;11.656;2022-10-16T15:57:24;1.73;;;0.75;;
15167;SDS011;7684;52.150;11.656;2022-10-16T15:59:51;3.83;;;2.78;;
15167;SDS011;7684;52.150;11.656;2022-10-16T16:02:17;17.73;;;12.98;;
15167;SDS011;7684;52.150;11.656;2022-10-16T16:04:43;20.98;;;16.77;;
15167;SDS011;7684;52.150;11.656;2022-10-16T16:07:10;4.55;;;3.13;;
15167;SDS011;7684;52.150;11.656;2022-10-16T16:09:36;4.63;;;1.23;;
15167;SDS011;7684;52.150;11.656;2022-10-16T16:12:03;2.00;;;0.93;;
15167;SDS011;7684;52.150;11.656;2022-10-16T16:14:30;1.27;;;0.77;;
15167;SDS011;7684;52.150;11.656;2022-10-16T16:16:57;2.63;;;0.73;;
15167;SDS011;7684;52.150;11.656;2022-10-16T16:19:23;1.70;;;1.30;;
15167;SDS011;7684;52.150;11.656;2022-10-16T16:21:50;3.53;;;1.45;;
15167;SDS011;7684;52.150;11.656;2022-10-16T16:24:16;3.80;;;1.50;;
15167;SDS011;7684;52.150;11.656;2022-10-16T16:26:43;1.50;;;1.25;;
15167;SDS011;7684;52.150;11.656;2022-10-16T16:29:09;1.90;;;1.10;;
15167;SDS011;7684;52.150;11.656;2022-10-16T16:31:39;2.22;;;1.17;;
15167;SDS011;7684;52.150;11.656;2022-10-16T16:34:06;2.75;;;0.82;;
15167;SDS011;7684;52.150;11.656;2022-10-16T16:36:34;2.15;;;0.95;;
15167;SDS011;7684;52.150;11.656;2022-10-16T16:39:00;4.68;;;1.10;;
15167;SDS011;7684;52.150;11.656;2022-10-16T16:41:27;2.07;;;0.97;;
15167;SDS011;7684;52.150;11.656;2022-10-16T16:43:55;2.13;;;1.10;;
15167;SDS011;7684;52.150;11.656;2022-10-16T16:46:22;2.53;;;1.27;;
15167;SDS011;7684;52.150;11.656;2022-10-16T16:48:50;3.03;;;1.30;;
15167;SDS011;7684;52.150;11.656;2022-10-16T16:51:18;3.30;;;1.50;;
15167;SDS011;7684;52.150;11.656;2022-10-16T16:53:46;4.47;;;1.47;;
15167;SDS011;7684;52.150;11.656;2022-10-16T16:56:12;3.80;;;1.13;;
15167;SDS011;7684;52.150;11.656;2022-10-16T16:58:39;1.30;;;0.90;;
15167;SDS011;7684;52.150;11.656;2022-10-16T17:01:05;1.63;;;1.00;;
15167;SDS011;7684;52.150;11.656;2022-10-16T17:03:33;2.43;;;1.30;;
15167;SDS011;7684;52.150;11.656;2022-10-16T17:06:02;4.33;;;1.50;;
15167;SDS011;7684;52.150;11.656;2022-10-16T17:08:29;4.27;;;1.50;;
15167;SDS011;7684;52.150;11.656;2022-10-16T17:10:56;1.33;;;1.00;;
15167;SDS011;7684;52.150;11.656;2022-10-16T17:13:22;2.73;;;0.97;;
15167;SDS011;7684;52.150;11.656;2022-10-16T17:15:49;2.40;;;0.83;;
15167;SDS011;7684;52.150;11.656;2022-10-16T17:18:16;1.63;;;1.03;;
15167;SDS011;7684;52.150;11.656;2022-10-16T17:20:43;1.50;;;1.10;;
15167;SDS011;7684;52.150;11.656;2022-10-16T17:23:11;2.40;;;1.13;;
15167;SDS011;7684;52.150;11.656;2022-10-16T17:25:38;2.37;;;1.03;;
15167;SDS011;7684;52.150;11.656;2022-10-16T17:28:05;1.93;;;0.90;;
15167;SDS011;7684;52.150;11.656;2022-10-16T17:30:31;4.27;;;1.30;;
15167;SDS011;7684;52.150;11.656;2022-10-16T17:32:59;4.80;;;1.30;;
15167;SDS011;7684;52.150;11.656;2022-10-16T17:35:26;2.50;;;1.20;;
15167;SDS011;7684;52.150;11.656;2022-10-16T17:37:52;3.17;;;1.53;;
15167;SDS011;7684;52.150;11.656;2022-10-16T17:40:20;2.20;;;1.40;;
15167;SDS011;7684;52.150;11.656;2022-10-16T17:42:47;5.47;;;1.23;;
15167;SDS011;7684;52.150;11.656;2022-10-16T17:45:13;4.30;;;1.47;;
15167;SDS011;7684;52.150;11.656;2022-10-16T17:47:39;2.20;;;1.60;;
15167;SDS011;7684;52.150;11.656;2022-10-16T17:50:07;3.50;;;1.20;;
15167;SDS011;7684;52.150;11.656;2022-10-16T17:52:33;3.03;;;1.57;;
15167;SDS011;7684;52.150;11.656;2022-10-16T17:55:00;3.20;;;1.50;;
15167;SDS011;7684;52.150;11.656;2022-10-16T17:57:27;2.83;;;1.50;;
15167;SDS011;7684;52.150;11.656;2022-10-16T17:59:54;2.77;;;1.43;;
15167;SDS011;7684;52.150;11.656;2022-10-16T18:02:20;4.63;;;1.70;;
15167;SDS011;7684;52.150;11.656;2022-10-16T18:04:47;4.40;;;2.73;;
15167;SDS011;7684;52.150;11.656;2022-10-16T18:07:14;2.77;;;1.97;;
15167;SDS011;7684;52.150;11.656;2022-10-16T18:09:41;3.40;;;1.90;;
15167;SDS011;7684;52.150;11.656;2022-10-16T18:12:07;3.13;;;1.90;;
15167;SDS011;7684;52.150;11.656;2022-10-16T18:14:35;4.10;;;2.10;;
15167;SDS011;7684;52.150;11.656;2022-10-16T18:17:02;3.03;;;2.07;;
15167;SDS011;7684;52.150;11.656;2022-10-16T18:19:28;4.03;;;2.93;;
15167;SDS011;7684;52.150;11.656;2022-10-16T18:21:54;5.07;;;3.00;;
15167;SDS011;7684;52.150;11.656;2022-10-16T18:24:21;3.23;;;1.47;;
15167;SDS011;7684;52.150;11.656;2022-10-16T18:26:49;1.93;;;1.40;;
15167;SDS011;7684;52.150;11.656;2022-10-16T18:29:20;1.90;;;1.37;;
15167;SDS011;7684;52.150;11.656;2022-10-16T18:31:48;3.63;;;1.20;;
15167;SDS011;7684;52.150;11.656;2022-10-16T18:34:15;1.90;;;1.57;;
15167;SDS011;7684;52.150;11.656;2022-10-16T18:36:41;1.47;;;1.23;;
15167;SDS011;7684;52.150;11.656;2022-10-16T18:39:08;5.27;;;1.80;;
15167;SDS011;7684;52.150;11.656;2022-10-16T18:41:35;2.13;;;1.70;;
15167;SDS011;7684;52.150;11.656;2022-10-16T18:44:02;5.73;;;1.67;;
15167;SDS011;7684;52.150;11.656;2022-10-16T18:46:29;3.00;;;2.10;;
15167;SDS011;7684;52.150;11.656;2022-10-16T18:48:57;4.67;;;2.00;;
15167;SDS011;7684;52.150;11.656;2022-10-16T18:51:26;4.17;;;1.97;;
15167;SDS011;7684;52.150;11.656;2022-10-16T18:53:53;2.40;;;2.13;;
15167;SDS011;7684;52.150;11.656;2022-10-16T18:56:21;2.80;;;2.17;;
15167;SDS011;7684;52.150;11.656;2022-10-16T18:58:47;3.93;;;2.27;;
15167;SDS011;7684;52.150;11.656;2022-10-16T19:01:14;3.53;;;2.10;;
15167;SDS011;7684;52.150;11.656;2022-10-16T19:03:41;5.00;;;2.87;;
15167;SDS011;7684;52.150;11.656;2022-10-16T19:06:09;3.40;;;2.70;;
15167;SDS011;7684;52.150;11.656;2022-10-16T19:08:36;2.70;;;2.40;;
15167;SDS011;7684;52.150;11.656;2022-10-16T19:11:03;4.40;;;2.70;;
15167;SDS011;7684;52.150;11.656;2022-10-16T19:13:30;3.93;;;2.47;;
15167;SDS011;7684;52.150;11.656;2022-10-16T19:15:56;4.27;;;2.40;;
15167;SDS011;7684;52.150;11.656;2022-10-16T19:18:23;2.80;;;2.60;;
15167;SDS011;7684;52.150;11.656;2022-10-16T19:20:50;3.43;;;2.57;;